Time;durP1;ratioP1;P1;durP2;ratioP2;P2;SDS_P1;SDS_P2;PMS_P1;PMS_P2;Temp;Humidity;BMP_temperature;BMP_pressure;BME280_temperature;BME280_humidity;BME280_pressure;Samples;Min_cycle;Max_cycle;Signal;HPM_P1;HPM_P2
2022/10/13 00:00:58;;;;;;;19.13;12.35;;;11.90;99.90;;;;;;2090114;28;20032;-71
2022/10/13 00:01:59;;;;;;;15.30;12.75;;;11.90;99.90;;;;;;2091854;28;20098;-71
2022/10/13 00:03:01;;;;;;;20.38;12.45;;;11.90;99.90;;;;;;2089384;28;20073;-71
2022/10/13 00:04:01;;;;;;;17.48;12.45;;;11.90;99.90;;;;;;2089286;28;20044;-71
2022/10/13 00:05:02;;;;;;;18.23;13.07;;;12.00;99.90;;;;;;2088408;28;20112;-71
2022/10/13 00:06:06;;;;;;;18.48;12.85;;;12.00;99.90;;;;;;2089771;28;20021;-71
2022/10/13 00:07:06;;;;;;;18.13;12.90;;;12.00;99.90;;;;;;2089698;28;20520;-71
2022/10/13 00:08:07;;;;;;;16.30;12.35;;;12.00;99.90;;;;;;2093340;28;20419;-71
2022/10/13 00:09:08;;;;;;;16.23;11.88;;;12.00;99.90;;;;;;2089258;28;20020;-70
2022/10/13 00:10:08;;;;;;;20.40;12.57;;;12.00;99.90;;;;;;2090844;28;20028;-71
2022/10/13 00:11:17;;;;;;;25.88;13.32;;;12.00;99.90;;;;;;2090976;28;20024;-71
2022/10/13 00:12:17;;;;;;;20.02;12.52;;;12.10;99.90;;;;;;2091208;28;20024;-71
2022/10/13 00:13:19;;;;;;;19.35;12.60;;;12.10;99.90;;;;;;2091541;28;20028;-71
2022/10/13 00:14:19;;;;;;;17.55;12.40;;;12.10;99.90;;;;;;2090801;28;20070;-71
2022/10/13 00:15:20;;;;;;;16.90;12.30;;;12.10;99.90;;;;;;2091679;28;20113;-71
2022/10/13 00:16:21;;;;;;;15.95;12.20;;;12.10;99.90;;;;;;2093166;28;20024;-71
2022/10/13 00:17:23;;;;;;;15.27;12.30;;;12.10;99.90;;;;;;2088907;28;20040;-70
2022/10/13 00:18:23;;;;;;;17.20;12.57;;;12.20;99.90;;;;;;2091982;28;20032;-71
2022/10/13 00:19:24;;;;;;;17.92;12.82;;;12.20;99.90;;;;;;2090749;28;20053;-71
2022/10/13 00:20:25;;;;;;;14.10;11.95;;;12.20;99.90;;;;;;2089210;28;20659;-71
2022/10/13 00:21:26;;;;;;;20.15;11.98;;;12.20;99.90;;;;;;2091011;28;20415;-70
2022/10/13 00:22:27;;;;;;;20.23;11.90;;;12.20;99.90;;;;;;2090794;28;20036;-71
2022/10/13 00:23:28;;;;;;;18.05;12.13;;;12.20;99.90;;;;;;2090863;28;20823;-71
2022/10/13 00:24:28;;;;;;;15.60;11.77;;;12.30;99.90;;;;;;2091638;28;20056;-71
2022/10/13 00:25:29;;;;;;;17.02;11.68;;;12.30;99.90;;;;;;2088401;28;20048;-71
2022/10/13 00:26:29;;;;;;;22.42;12.07;;;12.30;99.90;;;;;;2089974;28;20103;-71
2022/10/13 00:27:30;;;;;;;12.57;10.38;;;12.30;99.90;;;;;;2092976;28;20037;-71
2022/10/13 00:28:31;;;;;;;17.60;11.95;;;12.30;99.90;;;;;;2091243;28;20025;-71
2022/10/13 00:29:32;;;;;;;16.30;11.45;;;12.30;99.90;;;;;;2090004;28;20024;-71
2022/10/13 00:30:34;;;;;;;19.83;11.88;;;12.30;99.90;;;;;;2089597;28;20665;-71
2022/10/13 00:31:35;;;;;;;21.83;11.90;;;12.30;99.90;;;;;;2091478;28;20044;-71
2022/10/13 00:32:35;;;;;;;15.40;11.77;;;12.30;99.90;;;;;;2090492;28;20048;-71
2022/10/13 00:33:36;;;;;;;18.08;12.10;;;12.30;99.90;;;;;;2088621;28;20021;-71
2022/10/13 00:34:37;;;;;;;18.48;11.02;;;12.40;99.90;;;;;;2089552;28;20033;-71
2022/10/13 00:35:43;;;;;;;15.27;10.95;;;12.40;99.90;;;;;;2089087;28;20120;-71
2022/10/13 00:36:43;;;;;;;16.38;11.98;;;12.40;99.90;;;;;;2088895;28;20025;-71
2022/10/13 00:37:44;;;;;;;15.68;11.48;;;12.40;99.90;;;;;;2090525;28;20119;-71
2022/10/13 00:38:44;;;;;;;13.60;10.35;;;12.40;99.90;;;;;;2090285;28;20025;-71
2022/10/13 00:39:45;;;;;;;14.13;10.63;;;12.40;99.90;;;;;;2088672;28;20764;-71
2022/10/13 00:40:47;;;;;;;16.38;11.55;;;12.40;99.90;;;;;;2091531;28;20039;-71
2022/10/13 00:41:48;;;;;;;14.68;10.90;;;12.40;99.90;;;;;;2090413;28;20480;-71
2022/10/13 00:42:48;;;;;;;15.88;10.80;;;12.40;99.90;;;;;;2089617;28;20107;-71
2022/10/13 00:43:49;;;;;;;20.50;10.32;;;12.40;99.90;;;;;;2088774;28;20100;-71
2022/10/13 00:45:12;;;;;;;16.58;11.13;;;12.40;99.90;;;;;;2091942;28;20029;-71
2022/10/13 00:46:13;;;;;;;16.15;10.57;;;12.40;99.90;;;;;;2088994;28;20148;-71
2022/10/13 00:47:14;;;;;;;13.43;10.10;;;12.40;99.90;;;;;;2089382;28;20104;-70
2022/10/13 00:48:18;;;;;;;18.58;10.82;;;12.40;99.90;;;;;;2089665;28;20036;-71
2022/10/13 00:49:18;;;;;;;16.42;10.70;;;12.50;99.90;;;;;;2088812;28;20024;-71
2022/10/13 00:50:23;;;;;;;18.55;10.52;;;12.40;99.90;;;;;;2089873;28;20128;-71
2022/10/13 00:51:28;;;;;;;18.85;11.02;;;12.50;99.90;;;;;;2089382;28;20032;-71
2022/10/13 00:52:30;;;;;;;18.67;10.52;;;12.50;99.90;;;;;;2090557;28;20086;-71
2022/10/13 00:53:35;;;;;;;18.08;11.00;;;12.50;99.90;;;;;;2089375;28;20050;-71
2022/10/13 00:54:36;;;;;;;13.85;10.43;;;12.50;99.90;;;;;;2089482;28;20149;-71
2022/10/13 00:55:39;;;;;;;16.10;11.10;;;12.50;99.90;;;;;;2088929;28;20040;-71
2022/10/13 00:56:41;;;;;;;19.83;10.13;;;12.50;99.90;;;;;;2090879;28;20082;-71
2022/10/13 00:57:45;;;;;;;15.27;10.10;;;12.50;99.90;;;;;;2088031;28;20017;-71
2022/10/13 00:58:47;;;;;;;15.15;10.45;;;12.50;99.90;;;;;;2092852;28;20369;-71
2022/10/13 00:59:48;;;;;;;22.80;11.52;;;12.50;99.90;;;;;;2092134;28;20056;-71
2022/10/13 01:00:51;;;;;;;16.52;10.80;;;12.50;99.90;;;;;;2091406;28;20021;-71
2022/10/13 01:01:53;;;;;;;16.52;10.30;;;12.50;99.90;;;;;;2089706;28;20477;-71
2022/10/13 01:02:53;;;;;;;16.50;11.07;;;12.50;99.90;;;;;;2090397;28;21034;-71
2022/10/13 01:03:54;;;;;;;16.67;11.25;;;12.50;99.90;;;;;;2087978;28;20518;-71
2022/10/13 01:04:56;;;;;;;15.52;10.07;;;12.50;99.90;;;;;;2090487;28;20029;-71
2022/10/13 01:06:01;;;;;;;15.10;10.68;;;12.60;99.90;;;;;;2091813;28;20028;-71
2022/10/13 01:07:02;;;;;;;14.23;9.55;;;12.60;99.90;;;;;;2090233;28;20054;-71
2022/10/13 01:08:03;;;;;;;18.05;10.45;;;12.50;99.90;;;;;;2090884;28;20111;-71
2022/10/13 01:09:04;;;;;;;16.25;10.95;;;12.60;99.90;;;;;;2088843;28;20028;-71
2022/10/13 01:10:05;;;;;;;15.65;10.15;;;12.60;99.90;;;;;;2087981;28;20045;-71
2022/10/13 01:11:17;;;;;;;16.75;11.60;;;12.60;99.90;;;;;;2089194;28;20024;-71
2022/10/13 01:12:27;;;;;;;13.55;10.75;;;12.60;99.90;;;;;;2089746;28;20025;-71
2022/10/13 01:13:35;;;;;;;19.55;11.15;;;12.60;99.90;;;;;;2088323;28;20380;-71
2022/10/13 01:14:49;;;;;;;15.75;10.75;;;12.60;99.90;;;;;;2090830;28;20040;-70
2022/10/13 01:16:21;;;;;;;15.93;10.57;;;12.60;99.90;;;;;;2089914;28;20060;-70
2022/10/13 01:17:29;;;;;;;13.48;10.05;;;12.50;99.90;;;;;;2085623;28;20028;-71
2022/10/13 01:18:41;;;;;;;16.85;10.65;;;12.50;99.90;;;;;;2089313;28;20021;-71
2022/10/13 01:19:59;;;;;;;15.93;10.40;;;12.50;99.90;;;;;;2091116;28;20023;-71
2022/10/13 01:21:18;;;;;;;13.95;10.45;;;12.50;99.90;;;;;;2088710;28;20028;-71
2022/10/13 01:22:43;;;;;;;15.63;9.73;;;12.50;99.90;;;;;;2089304;28;20104;-71
2022/10/13 01:24:04;;;;;;;13.82;9.85;;;12.50;99.90;;;;;;2089797;28;20020;-71
2022/10/13 01:25:29;;;;;;;14.40;10.13;;;12.50;99.90;;;;;;2090196;28;20108;-71
2022/10/13 01:26:59;;;;;;;15.98;10.70;;;12.50;99.90;;;;;;2089286;28;20032;-71
2022/10/13 01:28:21;;;;;;;17.25;11.32;;;12.50;99.90;;;;;;2089686;28;20033;-71
2022/10/13 01:29:40;;;;;;;12.88;10.10;;;12.50;99.90;;;;;;2091427;28;20029;-71
2022/10/13 01:30:50;;;;;;;13.35;10.05;;;12.50;99.90;;;;;;2091653;28;20055;-71
2022/10/13 01:32:04;;;;;;;15.50;9.98;;;12.50;99.90;;;;;;2090884;28;20064;-71
2022/10/13 01:33:23;;;;;;;18.83;10.82;;;12.50;99.90;;;;;;2089827;28;20033;-71
2022/10/13 01:34:42;;;;;;;14.95;10.82;;;12.60;99.90;;;;;;2089897;28;20017;-71
2022/10/13 01:36:05;;;;;;;11.80;10.18;;;12.60;99.90;;;;;;2091869;28;20032;-71
2022/10/13 01:37:25;;;;;;;14.45;10.13;;;12.50;99.90;;;;;;2091323;28;20033;-71
2022/10/13 01:38:51;;;;;;;13.75;9.95;;;12.60;99.90;;;;;;2089635;28;20472;-71
2022/10/13 01:39:58;;;;;;;13.45;9.65;;;12.50;99.90;;;;;;2090004;28;20464;-71
2022/10/13 01:41:12;;;;;;;17.77;9.93;;;12.50;99.90;;;;;;2089812;28;20144;-71
2022/10/13 01:42:34;;;;;;;13.48;10.07;;;12.50;99.90;;;;;;2089073;28;20026;-71
2022/10/13 01:43:43;;;;;;;16.30;10.60;;;12.50;99.90;;;;;;2089781;28;20380;-71
2022/10/13 01:44:58;;;;;;;13.23;10.13;;;12.60;99.90;;;;;;2088289;28;20024;-71
2022/10/13 01:46:11;;;;;;;16.80;9.95;;;12.60;99.90;;;;;;2098604;28;20077;-71
2022/10/13 01:47:14;;;;;;;17.52;10.07;;;12.60;99.90;;;;;;2096961;28;20017;-71
2022/10/13 01:48:17;;;;;;;18.50;10.98;;;12.60;99.90;;;;;;2090847;28;20034;-71
2022/10/13 01:49:20;;;;;;;16.33;11.20;;;12.60;99.90;;;;;;2089919;28;20025;-71
2022/10/13 01:50:22;;;;;;;14.32;10.93;;;12.60;99.90;;;;;;2089530;28;20028;-71
2022/10/13 01:51:25;;;;;;;14.90;10.48;;;12.60;99.90;;;;;;2089249;28;20028;-71
2022/10/13 01:52:33;;;;;;;15.48;10.68;;;12.60;99.90;;;;;;2089115;28;20404;-71
2022/10/13 01:53:34;;;;;;;18.25;10.88;;;12.60;99.90;;;;;;2090236;28;20047;-71
2022/10/13 01:54:35;;;;;;;15.15;10.63;;;12.60;99.90;;;;;;2091368;28;20025;-71
2022/10/13 01:55:36;;;;;;;14.05;9.27;;;12.60;99.90;;;;;;2090654;28;20029;-71
2022/10/13 01:56:36;;;;;;;17.25;10.70;;;12.70;99.90;;;;;;2091012;28;20032;-71
2022/10/13 01:57:40;;;;;;;14.30;9.57;;;12.70;99.90;;;;;;2091506;28;20082;-71
2022/10/13 01:58:41;;;;;;;15.80;10.18;;;12.70;99.90;;;;;;2090884;28;20100;-71
2022/10/13 01:59:41;;;;;;;14.15;9.80;;;12.70;99.90;;;;;;2092550;28;20024;-71
2022/10/13 02:00:53;;;;;;;14.77;10.65;;;12.70;99.90;;;;;;2090811;28;20594;-71
2022/10/13 02:02:13;;;;;;;15.85;10.07;;;12.70;99.90;;;;;;2091011;28;20549;-71
2022/10/13 02:03:13;;;;;;;15.02;10.63;;;12.70;99.90;;;;;;2091531;28;20757;-70
2022/10/13 02:04:33;;;;;;;12.52;10.10;;;12.70;99.90;;;;;;2091875;28;20138;-70
2022/10/13 02:05:47;;;;;;;14.80;9.63;;;12.70;99.90;;;;;;2092569;28;20064;-70
2022/10/13 02:06:52;;;;;;;14.23;9.73;;;12.70;99.90;;;;;;2090417;28;20032;-70
2022/10/13 02:08:15;;;;;;;13.77;10.60;;;12.70;99.90;;;;;;2090673;28;20025;-70
2022/10/13 02:09:21;;;;;;;15.73;10.40;;;12.70;99.90;;;;;;2050691;28;20031;-70
2022/10/13 02:10:39;;;;;;;14.85;9.95;;;12.70;99.90;;;;;;2080741;28;20029;-70
2022/10/13 02:11:48;;;;;;;14.10;10.07;;;12.70;99.90;;;;;;2091831;28;20021;-71
2022/10/13 02:12:54;;;;;;;15.45;9.77;;;12.70;99.90;;;;;;2090831;28;20062;-71
2022/10/13 02:13:58;;;;;;;12.43;9.63;;;12.70;99.90;;;;;;2089081;28;20021;-71
2022/10/13 02:15:00;;;;;;;16.35;11.18;;;12.70;99.90;;;;;;2090069;28;20625;-71
2022/10/13 02:16:01;;;;;;;13.40;10.40;;;12.70;99.90;;;;;;2091568;28;20033;-71
2022/10/13 02:17:04;;;;;;;13.30;9.73;;;12.70;99.90;;;;;;2091587;28;20017;-71
2022/10/13 02:18:07;;;;;;;14.40;9.50;;;12.70;99.90;;;;;;2090251;28;20106;-71
2022/10/13 02:19:11;;;;;;;16.63;9.93;;;12.80;99.90;;;;;;2092223;28;20065;-71
2022/10/13 02:20:15;;;;;;;14.73;9.07;;;12.80;99.90;;;;;;2090218;28;20414;-71
2022/10/13 02:21:16;;;;;;;13.20;9.50;;;12.80;99.90;;;;;;2091452;28;20565;-71
2022/10/13 02:22:18;;;;;;;15.32;9.93;;;12.80;99.90;;;;;;2092023;28;20760;-71
2022/10/13 02:23:18;;;;;;;10.20;9.13;;;12.80;99.90;;;;;;2092237;28;20070;-71
2022/10/13 02:24:19;;;;;;;15.77;10.07;;;12.80;99.90;;;;;;2092302;28;20123;-71
2022/10/13 02:25:20;;;;;;;14.25;9.77;;;12.80;99.90;;;;;;2091120;28;20078;-71
2022/10/13 02:26:21;;;;;;;11.40;9.25;;;12.80;99.90;;;;;;2090570;28;20496;-71
2022/10/13 02:27:22;;;;;;;13.93;9.70;;;12.80;99.90;;;;;;2092245;28;20039;-71
2022/10/13 02:28:22;;;;;;;13.35;10.02;;;12.80;99.90;;;;;;2091558;28;20028;-71
2022/10/13 02:29:23;;;;;;;15.38;9.85;;;12.80;99.90;;;;;;2090128;28;21831;-71
2022/10/13 02:30:27;;;;;;;17.05;10.23;;;12.80;99.90;;;;;;2091050;28;20025;-71
2022/10/13 02:31:27;;;;;;;11.70;9.90;;;12.80;99.90;;;;;;2091314;28;20036;-71
2022/10/13 02:32:28;;;;;;;14.95;10.48;;;12.80;99.90;;;;;;2089834;28;20025;-71
2022/10/13 02:33:29;;;;;;;15.20;10.15;;;12.80;99.90;;;;;;2089645;28;20025;-71
2022/10/13 02:34:29;;;;;;;17.83;9.95;;;12.80;99.90;;;;;;2092981;28;20030;-70
2022/10/13 02:35:31;;;;;;;12.88;9.98;;;12.80;99.90;;;;;;2091514;28;20025;-70
2022/10/13 02:36:32;;;;;;;18.02;10.05;;;12.80;99.90;;;;;;2091507;28;20036;-70
2022/10/13 02:37:33;;;;;;;10.95;9.27;;;12.90;99.90;;;;;;2091760;28;20025;-70
2022/10/13 02:38:33;;;;;;;18.17;10.88;;;12.90;99.90;;;;;;2091661;28;20029;-70
2022/10/13 02:39:34;;;;;;;12.82;9.57;;;12.90;99.90;;;;;;2092893;28;20063;-70
2022/10/13 02:40:35;;;;;;;15.18;9.32;;;12.90;99.90;;;;;;2090245;28;20476;-70
2022/10/13 02:41:35;;;;;;;16.20;10.48;;;12.90;99.90;;;;;;2089124;28;20029;-70
2022/10/13 02:42:36;;;;;;;14.05;9.55;;;12.90;99.90;;;;;;2090507;28;20060;-71
2022/10/13 02:43:37;;;;;;;17.75;10.73;;;12.90;99.90;;;;;;2089896;28;20029;-71
2022/10/13 02:44:38;;;;;;;13.35;9.18;;;12.90;99.90;;;;;;2092111;28;20025;-71
2022/10/13 02:45:39;;;;;;;15.15;9.73;;;12.90;99.90;;;;;;2090624;28;20047;-71
2022/10/13 02:46:40;;;;;;;14.52;9.70;;;12.90;99.90;;;;;;2092449;28;20117;-71
2022/10/13 02:47:41;;;;;;;13.35;9.80;;;12.90;99.90;;;;;;2094329;28;20074;-71
2022/10/13 02:48:41;;;;;;;10.70;9.40;;;12.90;99.90;;;;;;2090251;28;20078;-71
2022/10/13 02:49:42;;;;;;;12.57;9.57;;;12.90;99.90;;;;;;2091132;28;20021;-71
2022/10/13 02:50:42;;;;;;;15.70;10.20;;;12.90;99.90;;;;;;2092334;28;20028;-71
2022/10/13 02:51:43;;;;;;;16.42;10.10;;;13.00;99.90;;;;;;2089653;28;20032;-71
2022/10/13 02:52:43;;;;;;;15.50;10.13;;;13.00;99.90;;;;;;2091792;28;20028;-71
2022/10/13 02:53:44;;;;;;;18.92;10.60;;;13.00;99.90;;;;;;2089756;28;20582;-71
2022/10/13 02:54:44;;;;;;;16.90;10.18;;;13.00;99.90;;;;;;2090349;28;20460;-71
2022/10/13 02:55:45;;;;;;;12.75;9.98;;;13.00;99.90;;;;;;2091812;28;20405;-72
2022/10/13 02:56:45;;;;;;;15.32;9.63;;;13.00;99.90;;;;;;2091075;28;20028;-71
2022/10/13 02:57:46;;;;;;;15.27;10.05;;;13.00;99.90;;;;;;2092854;28;20044;-71
2022/10/13 02:58:46;;;;;;;18.33;10.60;;;13.00;99.90;;;;;;2089544;28;20025;-71
2022/10/13 02:59:47;;;;;;;12.57;9.30;;;13.00;99.90;;;;;;2091625;28;20087;-71
2022/10/13 03:00:47;;;;;;;15.80;10.10;;;13.00;99.90;;;;;;2092194;28;20459;-71
2022/10/13 03:01:48;;;;;;;15.43;10.18;;;13.00;99.90;;;;;;2089897;28;20464;-71
2022/10/13 03:02:49;;;;;;;16.35;10.50;;;13.00;99.90;;;;;;2088843;28;20080;-71
2022/10/13 03:03:49;;;;;;;14.85;10.18;;;13.00;99.90;;;;;;2090109;28;20573;-71
2022/10/13 03:04:50;;;;;;;17.05;10.05;;;13.00;99.90;;;;;;2090644;28;20392;-71
2022/10/13 03:05:51;;;;;;;15.77;10.23;;;13.00;99.90;;;;;;2088872;28;20530;-71
2022/10/13 03:06:51;;;;;;;16.52;10.27;;;13.00;99.90;;;;;;2090924;28;20055;-71
2022/10/13 03:07:52;;;;;;;14.57;10.27;;;13.00;99.90;;;;;;2091064;28;20039;-71
2022/10/13 03:08:52;;;;;;;13.90;10.55;;;13.00;99.90;;;;;;2088864;28;20029;-71
2022/10/13 03:09:53;;;;;;;13.05;10.48;;;13.00;99.90;;;;;;2091288;28;20539;-71
2022/10/13 03:10:53;;;;;;;11.57;9.65;;;13.00;99.90;;;;;;2089369;28;20029;-71
2022/10/13 03:11:54;;;;;;;16.17;10.30;;;13.00;99.90;;;;;;2090349;28;20509;-71
2022/10/13 03:12:54;;;;;;;15.73;10.77;;;13.00;99.90;;;;;;2090603;28;20086;-71
2022/10/13 03:13:55;;;;;;;18.17;10.75;;;13.00;99.90;;;;;;2091517;28;20078;-70
2022/10/13 03:14:56;;;;;;;13.15;9.65;;;13.00;99.90;;;;;;2091379;28;20029;-70
2022/10/13 03:15:56;;;;;;;16.60;9.48;;;13.00;99.90;;;;;;2089103;28;20412;-70
2022/10/13 03:16:57;;;;;;;16.17;11.23;;;13.10;99.90;;;;;;2091428;28;20107;-70
2022/10/13 03:17:58;;;;;;;14.85;10.15;;;13.10;99.90;;;;;;2091569;28;20031;-70
2022/10/13 03:18:58;;;;;;;13.40;10.00;;;13.10;99.90;;;;;;2090877;28;20028;-70
2022/10/13 03:19:59;;;;;;;15.82;10.88;;;13.00;99.90;;;;;;2091125;28;20032;-70
2022/10/13 03:21:02;;;;;;;17.63;11.27;;;13.10;99.90;;;;;;2089852;28;20400;-70
2022/10/13 03:22:03;;;;;;;15.18;10.52;;;13.10;99.90;;;;;;2090072;28;20503;-70
2022/10/13 03:23:05;;;;;;;14.55;10.88;;;13.10;99.90;;;;;;2092579;28;20403;-70
2022/10/13 03:24:06;;;;;;;13.82;9.95;;;13.10;99.90;;;;;;2091281;28;20095;-70
2022/10/13 03:25:07;;;;;;;12.73;9.82;;;13.00;99.90;;;;;;2091369;28;20028;-70
2022/10/13 03:26:07;;;;;;;16.75;10.32;;;13.10;99.90;;;;;;2089878;28;20017;-70
2022/10/13 03:27:08;;;;;;;12.05;10.35;;;13.10;99.90;;;;;;2090156;28;20029;-70
2022/10/13 03:28:09;;;;;;;14.05;9.75;;;13.10;99.90;;;;;;2090057;28;20028;-70
2022/10/13 03:29:17;;;;;;;16.42;10.60;;;13.10;99.90;;;;;;2091166;28;20039;-70
2022/10/13 03:30:17;;;;;;;14.68;9.88;;;13.10;99.90;;;;;;2091618;28;20055;-71
2022/10/13 03:31:18;;;;;;;24.77;10.05;;;13.10;99.90;;;;;;2091343;28;20079;-71
2022/10/13 03:32:18;;;;;;;15.63;10.50;;;13.10;99.90;;;;;;2089406;28;20052;-71
2022/10/13 03:33:19;;;;;;;14.77;10.73;;;13.10;99.90;;;;;;2090401;28;20016;-71
2022/10/13 03:34:19;;;;;;;16.85;10.18;;;13.10;99.90;;;;;;2091344;28;20475;-71
2022/10/13 03:35:20;;;;;;;14.80;10.45;;;13.10;99.90;;;;;;2090513;28;20017;-71
2022/10/13 03:36:20;;;;;;;14.23;10.20;;;13.10;99.90;;;;;;2090380;28;20029;-71
2022/10/13 03:37:21;;;;;;;14.60;10.32;;;13.10;99.90;;;;;;2089856;28;20033;-71
2022/10/13 03:38:21;;;;;;;17.20;10.48;;;13.10;99.90;;;;;;2089444;28;20404;-71
2022/10/13 03:39:22;;;;;;;13.27;10.63;;;13.10;99.90;;;;;;2093465;28;20066;-71
2022/10/13 03:40:23;;;;;;;15.23;10.40;;;13.10;99.90;;;;;;2090278;28;20108;-71
2022/10/13 03:41:24;;;;;;;14.88;10.38;;;13.10;99.90;;;;;;2090577;28;20017;-71
2022/10/13 03:42:24;;;;;;;15.10;11.30;;;13.10;99.90;;;;;;2089822;28;20029;-71
2022/10/13 03:43:25;;;;;;;13.63;10.55;;;13.10;99.90;;;;;;2091250;28;20040;-71
2022/10/13 03:44:26;;;;;;;16.70;10.73;;;13.10;99.90;;;;;;2093186;28;20107;-71
2022/10/13 03:45:26;;;;;;;15.75;10.27;;;13.20;99.90;;;;;;2089801;28;20468;-71
2022/10/13 03:46:28;;;;;;;15.57;10.60;;;13.20;99.90;;;;;;2090097;28;20025;-71
2022/10/13 03:47:29;;;;;;;14.52;10.48;;;13.10;99.90;;;;;;2090384;28;20039;-71
2022/10/13 03:48:31;;;;;;;14.90;10.45;;;13.20;99.90;;;;;;2090580;28;20039;-71
2022/10/13 03:49:31;;;;;;;13.43;10.15;;;13.20;99.90;;;;;;2090719;28;20369;-71
2022/10/13 03:50:32;;;;;;;16.98;10.38;;;13.20;99.90;;;;;;2092496;28;20048;-71
2022/10/13 03:51:32;;;;;;;13.95;10.45;;;13.20;99.90;;;;;;2089362;28;20067;-71
2022/10/13 03:52:33;;;;;;;14.95;10.35;;;13.20;99.90;;;;;;2089714;28;20810;-71
2022/10/13 03:53:34;;;;;;;15.18;10.70;;;13.20;99.90;;;;;;2090253;28;20036;-71
2022/10/13 03:54:34;;;;;;;13.60;10.32;;;13.20;99.90;;;;;;2092288;28;20052;-71
2022/10/13 03:55:35;;;;;;;13.82;9.80;;;13.20;99.90;;;;;;2090499;28;20395;-71
2022/10/13 03:56:36;;;;;;;15.85;10.13;;;13.20;99.90;;;;;;2089042;28;20107;-71
2022/10/13 03:57:36;;;;;;;20.35;10.38;;;13.20;99.90;;;;;;2088486;28;20047;-71
2022/10/13 03:58:37;;;;;;;12.93;10.63;;;13.20;99.90;;;;;;2090204;28;20021;-71
2022/10/13 03:59:40;;;;;;;13.30;10.32;;;13.20;99.90;;;;;;2088838;28;20116;-71
2022/10/13 04:00:41;;;;;;;15.18;9.60;;;13.20;99.90;;;;;;2090801;28;20504;-71
2022/10/13 04:01:41;;;;;;;13.40;10.25;;;13.10;99.90;;;;;;2090674;28;20519;-71
2022/10/13 04:02:42;;;;;;;14.75;10.50;;;13.20;99.90;;;;;;2090530;28;20033;-71
2022/10/13 04:03:42;;;;;;;14.40;9.82;;;13.20;99.90;;;;;;2093064;28;20385;-71
2022/10/13 04:04:43;;;;;;;13.07;10.05;;;13.20;99.90;;;;;;2093324;28;20020;-71
2022/10/13 04:05:44;;;;;;;16.58;10.77;;;13.20;99.90;;;;;;2088130;28;20025;-71
2022/10/13 04:06:44;;;;;;;14.25;9.93;;;13.20;99.90;;;;;;2088788;28;20065;-71
2022/10/13 04:07:45;;;;;;;15.45;10.30;;;13.20;99.90;;;;;;2091536;28;20029;-71
2022/10/13 04:08:45;;;;;;;12.88;9.95;;;13.20;99.90;;;;;;2090655;28;20111;-71
2022/10/13 04:09:46;;;;;;;18.15;10.13;;;13.20;99.90;;;;;;2089492;28;20812;-71
2022/10/13 04:10:46;;;;;;;14.00;10.57;;;13.20;99.90;;;;;;2090467;28;20029;-71
2022/10/13 04:11:52;;;;;;;13.98;9.50;;;13.20;99.90;;;;;;2090446;28;20025;-71
2022/10/13 04:12:52;;;;;;;13.93;10.82;;;13.20;99.90;;;;;;2091449;28;20032;-71
2022/10/13 04:13:55;;;;;;;15.90;10.50;;;13.20;99.90;;;;;;2089098;28;20064;-71
2022/10/13 04:14:55;;;;;;;15.20;10.73;;;13.20;99.90;;;;;;2089053;28;20401;-71
2022/10/13 04:16:08;;;;;;;13.45;9.93;;;13.20;99.90;;;;;;2090324;28;20093;-71
2022/10/13 04:17:08;;;;;;;16.98;10.70;;;13.20;99.90;;;;;;2092234;28;20393;-71
2022/10/13 04:18:10;;;;;;;16.42;10.05;;;13.20;99.90;;;;;;2089270;28;20044;-71
2022/10/13 04:19:12;;;;;;;20.95;10.30;;;13.30;99.90;;;;;;2089557;28;20043;-71
2022/10/13 04:20:13;;;;;;;14.45;9.77;;;13.20;99.90;;;;;;2090287;28;20024;-71
2022/10/13 04:21:14;;;;;;;19.38;10.88;;;13.20;99.90;;;;;;2091630;28;20064;-71
2022/10/13 04:22:14;;;;;;;13.00;9.88;;;13.20;99.90;;;;;;2091307;28;20050;-71
2022/10/13 04:23:15;;;;;;;12.40;9.93;;;13.30;99.90;;;;;;2091027;28;20508;-71
2022/10/13 04:24:16;;;;;;;14.32;9.98;;;13.30;99.90;;;;;;2091678;28;20025;-71
2022/10/13 04:25:17;;;;;;;16.90;11.68;;;13.30;99.90;;;;;;2091475;28;20035;-71
2022/10/13 04:26:20;;;;;;;14.85;10.00;;;13.20;99.90;;;;;;2092104;28;20061;-71
2022/10/13 04:27:22;;;;;;;15.38;10.88;;;13.30;99.90;;;;;;2088782;28;20017;-71
2022/10/13 04:28:22;;;;;;;17.20;9.50;;;13.30;99.90;;;;;;2089186;28;20469;-71
2022/10/13 04:29:23;;;;;;;12.25;10.07;;;13.30;99.90;;;;;;2090524;28;20426;-71
2022/10/13 04:30:23;;;;;;;12.32;9.07;;;13.30;99.90;;;;;;2089222;28;20247;-71
2022/10/13 04:31:26;;;;;;;18.08;10.90;;;13.30;99.90;;;;;;2088261;28;20035;-71
2022/10/13 04:32:27;;;;;;;13.45;9.88;;;13.30;99.90;;;;;;2088931;28;20083;-71
2022/10/13 04:33:28;;;;;;;14.50;9.68;;;13.30;99.90;;;;;;2089967;28;20103;-71
2022/10/13 04:34:28;;;;;;;12.45;10.13;;;13.30;99.90;;;;;;2089105;28;20092;-71
2022/10/13 04:35:29;;;;;;;17.52;10.02;;;13.30;99.90;;;;;;2090501;28;20025;-71
2022/10/13 04:36:30;;;;;;;12.77;9.30;;;13.30;99.90;;;;;;2090579;28;20048;-71
2022/10/13 04:37:31;;;;;;;12.75;9.77;;;13.30;99.90;;;;;;2089146;28;20021;-71
2022/10/13 04:38:31;;;;;;;16.05;9.05;;;13.30;99.90;;;;;;2090846;28;20044;-71
2022/10/13 04:39:32;;;;;;;13.68;9.25;;;13.40;99.90;;;;;;2090142;28;20017;-70
2022/10/13 04:40:33;;;;;;;9.65;8.57;;;13.30;99.90;;;;;;2092636;28;20029;-70
2022/10/13 04:41:34;;;;;;;14.30;9.18;;;13.40;99.90;;;;;;2092160;28;20032;-71
2022/10/13 04:42:34;;;;;;;13.32;9.30;;;13.40;99.90;;;;;;2090518;28;20083;-71
2022/10/13 04:43:35;;;;;;;19.58;10.52;;;13.30;99.90;;;;;;2089908;28;20036;-71
2022/10/13 04:44:36;;;;;;;14.05;8.95;;;13.40;99.90;;;;;;2089918;28;20028;-71
2022/10/13 04:45:37;;;;;;;16.05;9.20;;;13.40;99.90;;;;;;2089890;28;20115;-71
2022/10/13 04:46:38;;;;;;;14.60;9.30;;;13.40;99.90;;;;;;2089889;28;20025;-71
2022/10/13 04:47:38;;;;;;;16.33;10.23;;;13.40;99.90;;;;;;2091502;28;20104;-71
2022/10/13 04:48:39;;;;;;;14.38;9.35;;;13.40;99.90;;;;;;2089956;28;20033;-71
2022/10/13 04:49:40;;;;;;;14.77;9.43;;;13.40;99.90;;;;;;2090923;28;20064;-71
2022/10/13 04:50:40;;;;;;;11.98;9.23;;;13.40;99.90;;;;;;2090332;28;20119;-71
2022/10/13 04:51:41;;;;;;;15.73;10.13;;;13.40;99.90;;;;;;2091093;28;20017;-71
2022/10/13 04:52:41;;;;;;;16.58;9.93;;;13.40;99.90;;;;;;2090203;28;20511;-71
2022/10/13 04:53:42;;;;;;;14.32;9.23;;;13.40;99.90;;;;;;2092213;28;20021;-71
2022/10/13 04:54:43;;;;;;;16.60;10.05;;;13.40;99.90;;;;;;2091709;28;20032;-71
2022/10/13 04:55:43;;;;;;;15.85;8.82;;;13.40;99.90;;;;;;2092139;28;20032;-71
2022/10/13 04:56:45;;;;;;;11.45;8.90;;;13.40;99.90;;;;;;2094597;28;20548;-71
2022/10/13 04:57:45;;;;;;;17.27;8.90;;;13.40;99.90;;;;;;2092097;28;20060;-71
2022/10/13 04:58:46;;;;;;;15.63;8.90;;;13.40;99.90;;;;;;2091627;28;20035;-71
2022/10/13 04:59:46;;;;;;;12.52;8.75;;;13.40;99.90;;;;;;2090792;28;20024;-71
2022/10/13 05:00:47;;;;;;;15.85;9.45;;;13.40;99.90;;;;;;2091257;28;20024;-70
2022/10/13 05:01:48;;;;;;;15.25;8.88;;;13.40;99.90;;;;;;2088133;28;20025;-71
2022/10/13 05:02:49;;;;;;;15.45;8.45;;;13.50;99.90;;;;;;2090291;28;20107;-71
2022/10/13 05:03:53;;;;;;;15.15;9.07;;;13.50;99.90;;;;;;2089723;28;20541;-71
2022/10/13 05:04:54;;;;;;;13.15;9.27;;;13.50;99.90;;;;;;2089426;28;20475;-71
2022/10/13 05:05:54;;;;;;;11.90;9.35;;;13.50;99.90;;;;;;2092109;28;20033;-71
2022/10/13 05:06:55;;;;;;;16.67;9.55;;;13.40;99.90;;;;;;2089650;28;20120;-71
2022/10/13 05:07:55;;;;;;;15.45;9.00;;;13.50;99.90;;;;;;2091874;28;20031;-71
2022/10/13 05:08:56;;;;;;;19.00;9.57;;;13.50;99.90;;;;;;2091733;28;20056;-71
2022/10/13 05:09:57;;;;;;;16.20;8.95;;;13.50;99.90;;;;;;2090002;28;20036;-71
2022/10/13 05:11:00;;;;;;;15.52;9.52;;;13.50;99.90;;;;;;2090103;28;20033;-71
2022/10/13 05:12:01;;;;;;;14.82;9.55;;;13.50;99.90;;;;;;2089286;28;20488;-71
2022/10/13 05:13:02;;;;;;;12.98;8.93;;;13.50;99.90;;;;;;2090639;28;20395;-71
2022/10/13 05:14:03;;;;;;;11.52;8.30;;;13.50;99.90;;;;;;2089541;28;20114;-71
2022/10/13 05:15:03;;;;;;;12.93;8.70;;;13.50;99.90;;;;;;2090550;28;20040;-71
2022/10/13 05:16:08;;;;;;;20.05;8.98;;;13.50;99.90;;;;;;2089378;28;20033;-71
2022/10/13 05:17:09;;;;;;;10.57;8.68;;;13.50;99.90;;;;;;2089541;28;20017;-71
2022/10/13 05:18:09;;;;;;;14.65;9.43;;;13.50;99.90;;;;;;2089019;28;20025;-71
2022/10/13 05:19:10;;;;;;;15.23;9.15;;;13.60;99.90;;;;;;2090192;28;20025;-72
2022/10/13 05:20:11;;;;;;;10.40;8.07;;;13.50;99.90;;;;;;2090850;28;20028;-72
2022/10/13 05:21:17;;;;;;;11.38;9.15;;;13.60;99.90;;;;;;2089501;28;20021;-71
2022/10/13 05:22:18;;;;;;;11.93;8.85;;;13.60;99.90;;;;;;2092233;28;20206;-71